Time;durP1;ratioP1;P1;durP2;ratioP2;P2;SDS_P1;SDS_P2;PMS_P1;PMS_P2;Temp;Humidity;BMP_temperature;BMP_pressure;BME280_temperature;BME280_humidity;BME280_pressure;Samples;Min_cycle;Max_cycle;Signal;HPM_P1;HPM_P2
2022/03/30 00:02:44;;;;;;;1999.90;999.90;;;;;;;;;;4993376;28;20259;-69
2022/03/30 00:05:28;;;;;;;1999.90;999.90;;;;;;;;;;4993530;28;20229;-68
2022/03/30 00:08:13;;;;;;;1999.90;999.90;;;;;;;;;;4992834;28;20204;-68
2022/03/30 00:11:00;;;;;;;1999.90;999.90;;;;;;;;;;4993458;28;20288;-68
2022/03/30 00:13:45;;;;;;;1999.90;999.90;;;;;;;;;;4993282;28;20207;-69
2022/03/30 00:16:30;;;;;;;1999.90;999.90;;;;;;;;;;4993383;28;20705;-68
2022/03/30 00:19:15;;;;;;;1999.90;999.90;;;;;;;;;;4992500;28;20209;-68
2022/03/30 00:22:00;;;;;;;1999.90;999.90;;;;;;;;;;4993343;28;20581;-68
2022/03/30 00:24:45;;;;;;;1999.90;999.90;;;;;;;;;;4992913;28;20772;-68
2022/03/30 00:27:31;;;;;;;1999.90;999.90;;;;;;;;;;4993141;28;20312;-68
2022/03/30 00:30:17;;;;;;;1999.90;999.90;;;;;;;;;;4993162;28;20715;-68
2022/03/30 00:33:02;;;;;;;1999.90;999.90;;;;;;;;;;4993109;28;20290;-68
2022/03/30 00:35:47;;;;;;;1999.90;999.90;;;;;;;;;;4992640;28;20229;-68
2022/03/30 00:38:32;;;;;;;1999.90;999.90;;;;;;;;;;4992451;28;20212;-68
2022/03/30 00:41:17;;;;;;;1999.90;999.90;;;;;;;;;;4992707;28;20224;-68
2022/03/30 00:44:09;;;;;;;1999.90;999.90;;;;;;;;;;4990816;28;20410;-68
2022/03/30 00:46:54;;;;;;;1999.90;999.90;;;;;;;;;;5005408;28;20208;-68
2022/03/30 00:49:39;;;;;;;1999.90;999.90;;;;;;;;;;5011667;28;20237;-69
2022/03/30 00:52:24;;;;;;;1999.90;999.90;;;;;;;;;;5012400;28;20295;-68
2022/03/30 00:55:09;;;;;;;1999.90;999.90;;;;;;;;;;5012224;28;20308;-68
2022/03/30 00:57:55;;;;;;;1999.90;999.90;;;;;;;;;;5011375;28;20212;-68
2022/03/30 01:00:41;;;;;;;1999.90;999.90;;;;;;;;;;5012002;28;20268;-68
2022/03/30 01:03:26;;;;;;;1999.90;999.90;;;;;;;;;;5012337;28;20204;-69
2022/03/30 01:06:11;;;;;;;1999.90;999.90;;;;;;;;;;5012257;28;20214;-68
2022/03/30 01:08:57;;;;;;;1999.90;999.90;;;;;;;;;;5011204;28;20217;-68
2022/03/30 01:11:42;;;;;;;1999.90;999.90;;;;;;;;;;5011858;28;20531;-68
2022/03/30 01:14:27;;;;;;;1999.90;999.90;;;;;;;;;;5012219;28;20226;-68
2022/03/30 01:17:13;;;;;;;1999.90;999.90;;;;;;;;;;5012202;28;20294;-68
2022/03/30 01:19:58;;;;;;;1999.90;999.90;;;;;;;;;;5011161;28;20636;-68
2022/03/30 01:22:44;;;;;;;1999.90;999.90;;;;;;;;;;5012179;28;20222;-68
2022/03/30 01:25:29;;;;;;;1999.90;999.90;;;;;;;;;;5011903;28;20239;-68
2022/03/30 01:28:14;;;;;;;1999.90;999.90;;;;;;;;;;5011076;28;20207;-68
2022/03/30 01:34:02;;;;;;;1999.90;999.90;;;;;;;;;;5010157;28;20278;-68
2022/03/30 01:36:47;;;;;;;1999.90;999.90;;;;;;;;;;5004655;28;20954;-68
2022/03/30 01:39:33;;;;;;;1999.90;999.90;;;;;;;;;;4991573;28;20264;-68
2022/03/30 01:42:18;;;;;;;1999.90;999.90;;;;;;;;;;4992357;28;20342;-67
2022/03/30 01:45:03;;;;;;;1999.90;999.90;;;;;;;;;;4992276;28;20227;-68
2022/03/30 01:47:50;;;;;;;1999.90;999.90;;;;;;;;;;4991904;28;20246;-66
2022/03/30 01:50:36;;;;;;;1999.90;999.90;;;;;;;;;;4972635;28;20212;-67
2022/03/30 01:53:21;;;;;;;1999.90;999.90;;;;;;;;;;4973043;28;20208;-68
2022/03/30 01:56:08;;;;;;;1999.90;999.90;;;;;;;;;;4982398;28;20208;-67
2022/03/30 01:58:52;;;;;;;1999.90;999.90;;;;;;;;;;4995000;28;20730;-69
2022/03/30 02:01:37;;;;;;;1999.90;999.90;;;;;;;;;;4995249;28;20233;-66
2022/03/30 02:04:24;;;;;;;1999.90;999.90;;;;;;;;;;5003390;28;20736;-68
2022/03/30 02:07:09;;;;;;;1999.90;999.90;;;;;;;;;;5015536;28;20577;-68
2022/03/30 02:09:54;;;;;;;1999.90;999.90;;;;;;;;;;4975510;28;20215;-69
2022/03/30 02:12:40;;;;;;;1999.90;999.90;;;;;;;;;;4975997;28;20209;-68
2022/03/30 02:15:25;;;;;;;1999.90;999.90;;;;;;;;;;4976006;28;20586;-69
2022/03/30 02:18:10;;;;;;;1999.90;999.90;;;;;;;;;;4988855;28;20211;-68
2022/03/30 02:20:55;;;;;;;1999.90;999.90;;;;;;;;;;4995111;28;20267;-68
2022/03/30 02:23:41;;;;;;;1999.90;999.90;;;;;;;;;;4995104;28;20207;-68
2022/03/30 02:26:27;;;;;;;1999.90;999.90;;;;;;;;;;4995175;28;20303;-68
2022/03/30 02:29:14;;;;;;;1999.90;999.90;;;;;;;;;;4994255;28;20204;-69
2022/03/30 02:32:00;;;;;;;1999.90;999.90;;;;;;;;;;4995219;28;20694;-69
2022/03/30 02:34:46;;;;;;;1999.90;999.90;;;;;;;;;;4995098;28;20323;-68
2022/03/30 02:37:30;;;;;;;1999.90;999.90;;;;;;;;;;4995100;28;20278;-68
2022/03/30 02:40:15;;;;;;;1999.90;999.90;;;;;;;;;;4995071;28;20771;-68
2022/03/30 02:43:01;;;;;;;1999.90;999.90;;;;;;;;;;4975648;28;20215;-68
2022/03/30 02:45:47;;;;;;;1999.90;999.90;;;;;;;;;;4974679;28;20498;-69
2022/03/30 02:48:33;;;;;;;1999.90;999.90;;;;;;;;;;4974736;28;20336;-68
2022/03/30 02:51:18;;;;;;;1999.90;999.90;;;;;;;;;;4975068;28;20204;-67
2022/03/30 02:54:03;;;;;;;1999.90;999.90;;;;;;;;;;4975315;28;20268;-68
2022/03/30 02:56:48;;;;;;;1999.90;999.90;;;;;;;;;;4975386;28;20208;-67
2022/03/30 02:59:34;;;;;;;1999.90;999.90;;;;;;;;;;4974517;28;20204;-68
2022/03/30 03:02:20;;;;;;;1999.90;999.90;;;;;;;;;;4987372;28;20729;-68
2022/03/30 03:05:05;;;;;;;1999.90;999.90;;;;;;;;;;4994433;28;20727;-68
2022/03/30 03:07:50;;;;;;;1999.90;999.90;;;;;;;;;;4992472;28;21021;-68
2022/03/30 03:10:37;;;;;;;1999.90;999.90;;;;;;;;;;4994588;28;20207;-68
2022/03/30 03:13:22;;;;;;;1999.90;999.90;;;;;;;;;;4994499;28;20231;-68
2022/03/30 03:16:07;;;;;;;1999.90;999.90;;;;;;;;;;4994218;28;20649;-69
2022/03/30 03:18:53;;;;;;;1999.90;999.90;;;;;;;;;;4993578;28;20207;-69
2022/03/30 03:21:39;;;;;;;1999.90;999.90;;;;;;;;;;4993896;28;20226;-68
2022/03/30 03:24:24;;;;;;;1999.90;999.90;;;;;;;;;;4994063;28;20840;-67
2022/03/30 03:27:10;;;;;;;1999.90;999.90;;;;;;;;;;4994208;28;20343;-69
2022/03/30 03:29:55;;;;;;;1999.90;999.90;;;;;;;;;;4993480;28;20253;-69
2022/03/30 03:32:40;;;;;;;1999.90;999.90;;;;;;;;;;4993840;28;20207;-69
2022/03/30 03:35:26;;;;;;;1999.90;999.90;;;;;;;;;;4992694;28;20286;-69
2022/03/30 03:38:12;;;;;;;1999.90;999.90;;;;;;;;;;5012829;28;20281;-69
2022/03/30 03:40:57;;;;;;;1999.90;999.90;;;;;;;;;;4987044;28;20717;-69
2022/03/30 03:43:42;;;;;;;1999.90;999.90;;;;;;;;;;5001190;28;20215;-69
2022/03/30 03:46:26;;;;;;;1999.90;999.90;;;;;;;;;;5013413;28;20265;-68
2022/03/30 03:49:12;;;;;;;1999.90;999.90;;;;;;;;;;4992800;28;20290;-69
2022/03/30 03:51:58;;;;;;;1999.90;999.90;;;;;;;;;;4992631;28;20461;-67
2022/03/30 03:54:43;;;;;;;1999.90;999.90;;;;;;;;;;4993112;28;20227;-69
2022/03/30 03:57:28;;;;;;;1999.90;999.90;;;;;;;;;;5007037;28;20338;-69
2022/03/30 04:00:13;;;;;;;1999.90;999.90;;;;;;;;;;5010114;28;20322;-68
2022/03/30 04:02:58;;;;;;;1999.90;999.90;;;;;;;;;;4993640;28;20278;-69
2022/03/30 04:05:43;;;;;;;1999.90;999.90;;;;;;;;;;4993147;28;20387;-68
2022/03/30 04:08:30;;;;;;;1999.90;999.90;;;;;;;;;;4992273;28;20203;-68
2022/03/30 04:11:15;;;;;;;1999.90;999.90;;;;;;;;;;4993382;28;20203;-69
2022/03/30 04:14:00;;;;;;;1999.90;999.90;;;;;;;;;;5008958;28;20218;-69
2022/03/30 04:16:46;;;;;;;1999.90;999.90;;;;;;;;;;5012746;28;20229;-68
2022/03/30 04:19:31;;;;;;;1999.90;999.90;;;;;;;;;;4999343;28;20421;-68
2022/03/30 04:22:17;;;;;;;1999.90;999.90;;;;;;;;;;4992797;28;20231;-68
2022/03/30 04:25:04;;;;;;;1999.90;999.90;;;;;;;;;;4992881;28;20642;-69
2022/03/30 04:27:50;;;;;;;1999.90;999.90;;;;;;;;;;4992407;28;20208;-67
2022/03/30 04:30:35;;;;;;;1999.90;999.90;;;;;;;;;;4993087;28;20294;-69
2022/03/30 04:33:20;;;;;;;1999.90;999.90;;;;;;;;;;4992905;28;20207;-68
2022/03/30 04:36:06;;;;;;;1999.90;999.90;;;;;;;;;;4992902;28;20226;-68
2022/03/30 04:38:51;;;;;;;1999.90;999.90;;;;;;;;;;4991927;28;20697;-68
2022/03/30 04:41:38;;;;;;;1999.90;999.90;;;;;;;;;;4992174;28;20713;-68
2022/03/30 04:44:25;;;;;;;1999.90;999.90;;;;;;;;;;4992805;28;20234;-69
2022/03/30 04:47:10;;;;;;;1999.90;999.90;;;;;;;;;;4992854;28;20214;-69
2022/03/30 04:49:55;;;;;;;1999.90;999.90;;;;;;;;;;4991775;28;20203;-68
2022/03/30 04:52:40;;;;;;;1999.90;999.90;;;;;;;;;;4992757;28;20207;-69
2022/03/30 04:55:26;;;;;;;1999.90;999.90;;;;;;;;;;4992736;28;20740;-68
2022/03/30 04:58:12;;;;;;;1999.90;999.90;;;;;;;;;;4991876;28;20219;-69
2022/03/30 05:00:57;;;;;;;1999.90;999.90;;;;;;;;;;4991056;28;20273;-68
2022/03/30 05:03:42;;;;;;;1999.90;999.90;;;;;;;;;;4992555;28;20207;-69
2022/03/30 05:06:27;;;;;;;1999.90;999.90;;;;;;;;;;4992594;28;20259;-69
2022/03/30 05:09:12;;;;;;;1999.90;999.90;;;;;;;;;;4991887;28;20282;-68
2022/03/30 05:11:57;;;;;;;1999.90;999.90;;;;;;;;;;4992444;28;20331;-68
2022/03/30 05:14:43;;;;;;;1999.90;999.90;;;;;;;;;;4992478;28;20226;-68
2022/03/30 05:17:29;;;;;;;1999.90;999.90;;;;;;;;;;4992387;28;20473;-68
2022/03/30 05:20:14;;;;;;;1999.90;999.90;;;;;;;;;;4992458;28;20211;-68
2022/03/30 05:22:59;;;;;;;1999.90;999.90;;;;;;;;;;4991983;28;20226;-68
2022/03/30 05:25:44;;;;;;;1999.90;999.90;;;;;;;;;;4991438;28;20793;-69
2022/03/30 05:28:29;;;;;;;1999.90;999.90;;;;;;;;;;4991664;28;20713;-68
2022/03/30 05:31:15;;;;;;;1999.90;999.90;;;;;;;;;;4994801;28;20211;-68
2022/03/30 05:34:00;;;;;;;1999.90;999.90;;;;;;;;;;4995957;28;20286;-68
2022/03/30 05:36:45;;;;;;;1999.90;999.90;;;;;;;;;;4996244;28;20282;-68
2022/03/30 05:39:30;;;;;;;1999.90;999.90;;;;;;;;;;4995439;28;20622;-68
2022/03/30 05:42:16;;;;;;;1999.90;999.90;;;;;;;;;;4996004;28;20227;-68
2022/03/30 05:45:02;;;;;;;1999.90;999.90;;;;;;;;;;4995801;28;20343;-68
2022/03/30 05:47:48;;;;;;;1999.90;999.90;;;;;;;;;;4995633;28;20282;-69
2022/03/30 05:50:33;;;;;;;1999.90;999.90;;;;;;;;;;4996047;28;20210;-68
2022/03/30 05:53:19;;;;;;;1999.90;999.90;;;;;;;;;;5009465;28;20504;-68
2022/03/30 05:56:04;;;;;;;1999.90;999.90;;;;;;;;;;4992645;28;20227;-68
2022/03/30 05:58:49;;;;;;;1999.90;999.90;;;;;;;;;;5004552;28;20259;-68
2022/03/30 06:01:34;;;;;;;1999.90;999.90;;;;;;;;;;4995299;28;20748;-68
2022/03/30 06:04:20;;;;;;;1999.90;999.90;;;;;;;;;;4995617;28;20223;-68
2022/03/30 06:07:05;;;;;;;1999.90;999.90;;;;;;;;;;4995664;28;20207;-69
2022/03/30 06:09:50;;;;;;;1999.90;999.90;;;;;;;;;;4994939;28;20212;-69
2022/03/30 06:12:35;;;;;;;1999.90;999.90;;;;;;;;;;4995102;28;20203;-69
2022/03/30 06:15:20;;;;;;;1999.90;999.90;;;;;;;;;;4995467;28;20231;-69
2022/03/30 06:18:10;;;;;;;1999.90;999.90;;;;;;;;;;4994133;28;20258;-68
2022/03/30 06:20:56;;;;;;;1999.90;999.90;;;;;;;;;;5010645;28;20760;-69
2022/03/30 06:23:42;;;;;;;1999.90;999.90;;;;;;;;;;4991958;28;20207;-67
2022/03/30 06:26:27;;;;;;;1999.90;999.90;;;;;;;;;;4995218;28;20200;-68
2022/03/30 06:29:12;;;;;;;1999.90;999.90;;;;;;;;;;4996809;28;20281;-68
2022/03/30 06:31:58;;;;;;;1999.90;999.90;;;;;;;;;;5000659;28;20250;-67
2022/03/30 06:34:43;;;;;;;1999.90;999.90;;;;;;;;;;4994875;28;20231;-68
2022/03/30 06:37:29;;;;;;;1999.90;999.90;;;;;;;;;;5008400;28;20598;-69
2022/03/30 06:40:17;;;;;;;1999.90;999.90;;;;;;;;;;5011508;28;20210;-69
2022/03/30 06:43:02;;;;;;;1999.90;999.90;;;;;;;;;;4993652;28;20367;-69
2022/03/30 06:45:47;;;;;;;1999.90;999.90;;;;;;;;;;4994647;28;20325;-68
2022/03/30 06:48:32;;;;;;;1999.90;999.90;;;;;;;;;;4994132;28;20209;-70
2022/03/30 06:51:17;;;;;;;1999.90;999.90;;;;;;;;;;4994767;28;20209;-66
2022/03/30 06:54:04;;;;;;;1999.90;999.90;;;;;;;;;;4993944;28;20430;-64
2022/03/30 06:56:49;;;;;;;1999.90;999.90;;;;;;;;;;4994722;28;20243;-68
2022/03/30 06:59:34;;;;;;;1999.90;999.90;;;;;;;;;;4994037;28;20708;-67
2022/03/30 07:02:19;;;;;;;1999.90;999.90;;;;;;;;;;4994482;28;20350;-68
2022/03/30 07:05:03;;;;;;;1999.90;999.90;;;;;;;;;;4994633;28;20274;-68
2022/03/30 07:10:52;;;;;;;1999.90;999.90;;;;;;;;;;4994498;28;20247;-68
2022/03/30 07:13:38;;;;;;;1999.90;999.90;;;;;;;;;;4994386;28;20207;-68
2022/03/30 07:16:23;;;;;;;1999.90;999.90;;;;;;;;;;4994222;28;20200;-68
2022/03/30 07:19:08;;;;;;;1999.90;999.90;;;;;;;;;;4993700;28;20229;-67
2022/03/30 07:21:53;;;;;;;1999.90;999.90;;;;;;;;;;4994330;28;20371;-68
2022/03/30 07:24:38;;;;;;;1999.90;999.90;;;;;;;;;;4993945;28;20480;-68
2022/03/30 07:27:24;;;;;;;1999.90;999.90;;;;;;;;;;4994209;28;20209;-68
2022/03/30 07:30:10;;;;;;;1999.90;999.90;;;;;;;;;;5005804;28;20206;-67
2022/03/30 07:32:56;;;;;;;1999.90;999.90;;;;;;;;;;4996640;28;20202;-69
2022/03/30 07:35:46;;;;;;;1999.90;999.90;;;;;;;;;;5013220;28;20348;-68
2022/03/30 07:38:31;;;;;;;1999.90;999.90;;;;;;;;;;4996947;28;20296;-68
2022/03/30 07:41:16;;;;;;;1999.90;999.90;;;;;;;;;;4989797;28;20205;-69
2022/03/30 07:44:05;;;;;;;1999.90;999.90;;;;;;;;;;4991937;28;20210;-69
2022/03/30 07:46:50;;;;;;;1999.90;999.90;;;;;;;;;;4989940;28;20293;-69
2022/03/30 07:49:35;;;;;;;1999.90;999.90;;;;;;;;;;4989435;28;20214;-69
2022/03/30 07:52:21;;;;;;;1999.90;999.90;;;;;;;;;;4989780;28;20697;-69
2022/03/30 07:55:07;;;;;;;1999.90;999.90;;;;;;;;;;4990587;28;20343;-69
2022/03/30 07:57:53;;;;;;;1999.90;999.90;;;;;;;;;;4991036;28;20219;-68
2022/03/30 08:00:39;;;;;;;1999.90;999.90;;;;;;;;;;4992109;28;20205;-68
2022/03/30 08:03:24;;;;;;;1999.90;999.90;;;;;;;;;;4989191;28;20227;-68
2022/03/30 08:06:09;;;;;;;1999.90;999.90;;;;;;;;;;4989592;28;20211;-69
2022/03/30 08:08:54;;;;;;;1999.90;999.90;;;;;;;;;;4990108;28;20683;-69
2022/03/30 08:11:39;;;;;;;1999.90;999.90;;;;;;;;;;4990830;28;20737;-69
2022/03/30 08:14:24;;;;;;;1999.90;999.90;;;;;;;;;;4989532;28;20729;-68
2022/03/30 08:17:10;;;;;;;1999.90;999.90;;;;;;;;;;4991094;28;20218;-69
2022/03/30 08:19:57;;;;;;;1999.90;999.90;;;;;;;;;;4990336;28;20326;-69
2022/03/30 08:22:41;;;;;;;1999.90;999.90;;;;;;;;;;4988816;28;20243;-69
2022/03/30 08:25:26;;;;;;;1999.90;999.90;;;;;;;;;;4988835;28;20721;-69
2022/03/30 08:28:11;;;;;;;1999.90;999.90;;;;;;;;;;4990096;28;20589;-71
2022/03/30 08:30:57;;;;;;;1999.90;999.90;;;;;;;;;;4990740;28;21225;-68
2022/03/30 08:33:44;;;;;;;1999.90;999.90;;;;;;;;;;4990265;28;20211;-70
2022/03/30 08:36:30;;;;;;;1999.90;999.90;;;;;;;;;;4989980;28;20226;-70
2022/03/30 08:39:15;;;;;;;1999.90;999.90;;;;;;;;;;4989478;28;20286;-70
2022/03/30 08:42:01;;;;;;;1999.90;999.90;;;;;;;;;;4990381;28;20227;-66
2022/03/30 08:44:47;;;;;;;1999.90;999.90;;;;;;;;;;4990642;28;20733;-68
2022/03/30 08:47:32;;;;;;;1999.90;999.90;;;;;;;;;;4990165;28;20214;-68
2022/03/30 08:50:20;;;;;;;1999.90;999.90;;;;;;;;;;4988894;28;20975;-68
2022/03/30 08:53:06;;;;;;;1999.90;999.90;;;;;;;;;;4990296;28;20226;-69
2022/03/30 08:55:51;;;;;;;1999.90;999.90;;;;;;;;;;4988748;28;20732;-68
2022/03/30 08:58:36;;;;;;;1999.90;999.90;;;;;;;;;;4974291;28;20203;-68
2022/03/30 09:01:23;;;;;;;1999.90;999.90;;;;;;;;;;4989959;28;20219;-68
2022/03/30 09:04:09;;;;;;;1999.90;999.90;;;;;;;;;;4988195;28;20325;-67
2022/03/30 09:06:56;;;;;;;1999.90;999.90;;;;;;;;;;4988269;28;20203;-68
2022/03/30 09:09:42;;;;;;;1999.90;999.90;;;;;;;;;;4988902;28;20257;-68
2022/03/30 09:12:27;;;;;;;1999.90;999.90;;;;;;;;;;4986663;28;20697;-69
2022/03/30 09:15:14;;;;;;;1999.90;999.90;;;;;;;;;;4987919;28;20298;-68
2022/03/30 09:18:00;;;;;;;1999.90;999.90;;;;;;;;;;4987609;28;20211;-69
2022/03/30 09:20:46;;;;;;;1999.90;999.90;;;;;;;;;;4990100;28;20203;-68
2022/03/30 09:23:32;;;;;;;1999.90;999.90;;;;;;;;;;4987935;28;20551;-68
2022/03/30 09:26:17;;;;;;;1999.90;999.90;;;;;;;;;;4990064;28;20345;-68
2022/03/30 09:29:02;;;;;;;1999.90;999.90;;;;;;;;;;4988142;28;20230;-68
2022/03/30 09:31:48;;;;;;;1999.90;999.90;;;;;;;;;;4987755;28;20219;-67
2022/03/30 09:34:34;;;;;;;1999.90;999.90;;;;;;;;;;4988191;28;20218;-69
2022/03/30 09:37:19;;;;;;;1999.90;999.90;;;;;;;;;;4989324;28;20690;-67
2022/03/30 09:40:12;;;;;;;1999.90;999.90;;;;;;;;;;4988552;28;20211;-69
2022/03/30 09:43:09;;;;;;;1999.90;999.90;;;;;;;;;;4988437;28;20246;-69
2022/03/30 09:46:04;;;;;;;1999.90;999.90;;;;;;;;;;4987958;28;20239;-70
2022/03/30 09:48:51;;;;;;;1999.90;999.90;;;;;;;;;;4988948;28;20215;-70
2022/03/30 09:51:36;;;;;;;1999.90;999.90;;;;;;;;;;4988455;28;20702;-70
2022/03/30 09:54:36;;;;;;;1999.90;999.90;;;;;;;;;;4988832;28;20231;-69
2022/03/30 09:57:24;;;;;;;1999.90;999.90;;;;;;;;;;4990001;28;20706;-69
2022/03/30 10:00:10;;;;;;;1999.90;999.90;;;;;;;;;;4988249;28;20208;-68
2022/03/30 10:02:55;;;;;;;1999.90;999.90;;;;;;;;;;4989986;28;20231;-66
2022/03/30 10:05:41;;;;;;;1999.90;999.90;;;;;;;;;;4989444;28;20231;-68
2022/03/30 10:08:25;;;;;;;1999.90;999.90;;;;;;;;;;4989406;28;20601;-67
2022/03/30 10:11:12;;;;;;;1999.90;999.90;;;;;;;;;;4989412;28;20247;-69
2022/03/30 10:13:59;;;;;;;1999.90;999.90;;;;;;;;;;4989544;28;20203;-68
2022/03/30 10:16:45;;;;;;;1999.90;999.90;;;;;;;;;;4991384;28;20211;-68
2022/03/30 10:19:31;;;;;;;1999.90;999.90;;;;;;;;;;4992863;28;20207;-65
2022/03/30 10:22:20;;;;;;;1999.90;999.90;;;;;;;;;;4992757;28;20211;-68
2022/03/30 10:25:10;;;;;;;1999.90;999.90;;;;;;;;;;4991829;28;20947;-69
2022/03/30 10:27:57;;;;;;;1999.90;999.90;;;;;;;;;;4992074;28;20873;-68
2022/03/30 10:30:44;;;;;;;1999.90;999.90;;;;;;;;;;4992917;28;20211;-68
2022/03/30 10:33:30;;;;;;;1999.90;999.90;;;;;;;;;;4992810;28;20559;-70
2022/03/30 10:36:23;;;;;;;1999.90;999.90;;;;;;;;;;4991904;28;20254;-68
2022/03/30 10:39:09;;;;;;;1999.90;999.90;;;;;;;;;;4992006;28;20745;-67
2022/03/30 10:41:56;;;;;;;1999.90;999.90;;;;;;;;;;4991014;28;20206;-68
2022/03/30 10:44:42;;;;;;;1999.90;999.90;;;;;;;;;;4992483;28;20224;-68
2022/03/30 10:47:29;;;;;;;1999.90;999.90;;;;;;;;;;4992558;28;20211;-68
2022/03/30 10:50:32;;;;;;;1999.90;999.90;;;;;;;;;;4992253;28;20206;-68
2022/03/30 10:53:38;;;;;;;1999.90;999.90;;;;;;;;;;4992172;28;20199;-68
2022/03/30 10:56:33;;;;;;;1999.90;999.90;;;;;;;;;;4991219;28;20237;-67
2022/03/30 10:59:18;;;;;;;1999.90;999.90;;;;;;;;;;4990374;28;20697;-67
2022/03/30 11:02:13;;;;;;;1999.90;999.90;;;;;;;;;;4991730;28;20435;-66
2022/03/30 11:05:10;;;;;;;1999.90;999.90;;;;;;;;;;4992128;28;20337;-68
2022/03/30 11:07:55;;;;;;;1999.90;999.90;;;;;;;;;;4990003;28;20206;-68
2022/03/30 11:10:47;;;;;;;1999.90;999.90;;;;;;;;;;4990882;28;20221;-67
2022/03/30 11:13:32;;;;;;;1999.90;999.90;;;;;;;;;;4990810;28;20252;-68
2022/03/30 11:16:17;;;;;;;1999.90;999.90;;;;;;;;;;4990841;28;20209;-68
2022/03/30 11:19:04;;;;;;;1999.90;999.90;;;;;;;;;;4991218;28;20217;-66
2022/03/30 11:21:55;;;;;;;1999.90;999.90;;;;;;;;;;4991219;28;20276;-67
2022/03/30 11:24:41;;;;;;;1999.90;999.90;;;;;;;;;;4989913;28;20294;-67
2022/03/30 11:27:26;;;;;;;1999.90;999.90;;;;;;;;;;4973810;28;20263;-66
2022/03/30 11:30:13;;;;;;;1999.90;999.90;;;;;;;;;;4973500;28;20220;-67
2022/03/30 11:32:59;;;;;;;1999.90;999.90;;;;;;;;;;4976815;28;20319;-68
2022/03/30 11:35:46;;;;;;;1999.90;999.90;;;;;;;;;;4974247;28;20664;-67
2022/03/30 11:38:37;;;;;;;1999.90;999.90;;;;;;;;;;4972731;28;20207;-67
2022/03/30 11:41:22;;;;;;;1999.90;999.90;;;;;;;;;;4976296;28;20209;-67
2022/03/30 11:47:13;;;;;;;1999.90;999.90;;;;;;;;;;4987211;28;20203;-68
2022/03/30 11:49:58;;;;;;;1999.90;999.90;;;;;;;;;;4974156;28;20238;-66
2022/03/30 11:52:44;;;;;;;1999.90;999.90;;;;;;;;;;4976955;28;21291;-68
2022/03/30 11:55:32;;;;;;;1999.90;999.90;;;;;;;;;;4979665;28;20301;-68
2022/03/30 11:58:26;;;;;;;1999.90;999.90;;;;;;;;;;4979504;28;20303;-66
2022/03/30 12:01:12;;;;;;;1999.90;999.90;;;;;;;;;;4972950;28;20220;-67
2022/03/30 12:03:57;;;;;;;1999.90;999.90;;;;;;;;;;4979337;28;20301;-69
2022/03/30 12:06:46;;;;;;;1999.90;999.90;;;;;;;;;;4972768;28;20279;-64
2022/03/30 12:09:31;;;;;;;1999.90;999.90;;;;;;;;;;4973190;28;20210;-67
2022/03/30 12:12:26;;;;;;;1999.90;999.90;;;;;;;;;;4972366;28;20288;-68
2022/03/30 12:15:16;;;;;;;1999.90;999.90;;;;;;;;;;4985530;28;20242;-67
2022/03/30 12:18:01;;;;;;;1999.90;999.90;;;;;;;;;;4974431;28;20698;-69
2022/03/30 12:20:47;;;;;;;1999.90;999.90;;;;;;;;;;4985978;28;20217;-68
2022/03/30 12:23:31;;;;;;;1999.90;999.90;;;;;;;;;;4974689;28;20230;-69
2022/03/30 12:26:16;;;;;;;1999.90;999.90;;;;;;;;;;4976954;28;20274;-68
2022/03/30 12:29:03;;;;;;;1999.90;999.90;;;;;;;;;;4974616;28;20206;-68
2022/03/30 12:31:52;;;;;;;1999.90;999.90;;;;;;;;;;4979854;28;20214;-67
2022/03/30 12:34:37;;;;;;;1999.90;999.90;;;;;;;;;;4974867;28;20591;-69
2022/03/30 12:37:23;;;;;;;1999.90;999.90;;;;;;;;;;4970747;28;20214;-68
2022/03/30 12:40:09;;;;;;;1999.90;999.90;;;;;;;;;;4987147;28;20628;-68
2022/03/30 12:43:00;;;;;;;1999.90;999.90;;;;;;;;;;4971565;28;20301;-69
2022/03/30 12:45:53;;;;;;;1999.90;999.90;;;;;;;;;;4988409;28;20727;-69
2022/03/30 12:48:39;;;;;;;1999.90;999.90;;;;;;;;;;4988240;28;20297;-68
2022/03/30 12:51:26;;;;;;;1999.90;999.90;;;;;;;;;;4988875;28;20210;-69
2022/03/30 12:54:21;;;;;;;1999.90;999.90;;;;;;;;;;4973808;28;20231;-69
2022/03/30 12:57:06;;;;;;;1999.90;999.90;;;;;;;;;;4972481;28;20419;-69
2022/03/30 12:59:52;;;;;;;1999.90;999.90;;;;;;;;;;4972491;28;20208;-69
2022/03/30 13:02:38;;;;;;;1999.90;999.90;;;;;;;;;;4971222;28;21317;-68
2022/03/30 13:05:24;;;;;;;1999.90;999.90;;;;;;;;;;4971354;28;20224;-68
2022/03/30 13:08:10;;;;;;;1999.90;999.90;;;;;;;;;;4979441;28;20208;-68
2022/03/30 13:10:57;;;;;;;1999.90;999.90;;;;;;;;;;4973168;28;20225;-67
2022/03/30 13:13:43;;;;;;;1999.90;999.90;;;;;;;;;;4974147;28;20207;-68
2022/03/30 13:16:29;;;;;;;1999.90;999.90;;;;;;;;;;4971388;28;20262;-67
2022/03/30 13:19:17;;;;;;;1999.90;999.90;;;;;;;;;;4973125;28;20772;-68
2022/03/30 13:22:05;;;;;;;1999.90;999.90;;;;;;;;;;4974835;28;20245;-67
2022/03/30 13:24:51;;;;;;;1999.90;999.90;;;;;;;;;;4977545;28;20297;-68
2022/03/30 13:27:42;;;;;;;1999.90;999.90;;;;;;;;;;4985742;28;20445;-68
2022/03/30 13:30:28;;;;;;;1999.90;999.90;;;;;;;;;;4988540;28;20214;-66
2022/03/30 13:33:13;;;;;;;1999.90;999.90;;;;;;;;;;4989193;28;20709;-67
2022/03/30 13:35:59;;;;;;;1999.90;999.90;;;;;;;;;;4989177;28;20354;-67
2022/03/30 13:38:44;;;;;;;1999.90;999.90;;;;;;;;;;4989012;28;20325;-68
2022/03/30 13:41:30;;;;;;;1999.90;999.90;;;;;;;;;;4987765;28;20211;-67
2022/03/30 13:44:15;;;;;;;1999.90;999.90;;;;;;;;;;4989101;28;20313;-68
2022/03/30 13:47:01;;;;;;;1999.90;999.90;;;;;;;;;;4989080;28;20290;-65
2022/03/30 13:49:46;;;;;;;1999.90;999.90;;;;;;;;;;4988619;28;20226;-68
2022/03/30 13:52:32;;;;;;;1999.90;999.90;;;;;;;;;;4991237;28;20214;-67
2022/03/30 13:55:17;;;;;;;1999.90;999.90;;;;;;;;;;4993189;28;20302;-68
2022/03/30 13:58:04;;;;;;;1999.90;999.90;;;;;;;;;;4992020;28;20700;-68
2022/03/30 14:00:49;;;;;;;1999.90;999.90;;;;;;;;;;4992538;28;20210;-67
2022/03/30 14:03:35;;;;;;;1999.90;999.90;;;;;;;;;;4992840;28;20226;-67
2022/03/30 14:06:20;;;;;;;1999.90;999.90;;;;;;;;;;4993267;28;20720;-69
2022/03/30 14:09:07;;;;;;;1999.90;999.90;;;;;;;;;;4992233;28;20709;-66
2022/03/30 14:11:51;;;;;;;1999.90;999.90;;;;;;;;;;4992778;28;20217;-68
2022/03/30 14:14:37;;;;;;;1999.90;999.90;;;;;;;;;;4992650;28;20740;-68
2022/03/30 14:17:22;;;;;;;1999.90;999.90;;;;;;;;;;4992713;28;20210;-68
2022/03/30 14:20:07;;;;;;;1999.90;999.90;;;;;;;;;;4990135;28;20217;-67
2022/03/30 14:22:52;;;;;;;1999.90;999.90;;;;;;;;;;4992902;28;20262;-67
2022/03/30 14:25:38;;;;;;;1999.90;999.90;;;;;;;;;;4991390;28;20234;-67
2022/03/30 14:28:25;;;;;;;1999.90;999.90;;;;;;;;;;4991352;28;20353;-67
2022/03/30 14:31:10;;;;;;;1999.90;999.90;;;;;;;;;;4991013;28;20221;-67
2022/03/30 14:33:55;;;;;;;1999.90;999.90;;;;;;;;;;4992064;28;20214;-67
2022/03/30 14:36:40;;;;;;;1999.90;999.90;;;;;;;;;;4992052;28;20227;-66
2022/03/30 14:39:25;;;;;;;1999.90;999.90;;;;;;;;;;4991321;28;20210;-67
2022/03/30 14:42:12;;;;;;;1999.90;999.90;;;;;;;;;;4992507;28;20293;-67
2022/03/30 14:44:56;;;;;;;1999.90;999.90;;;;;;;;;;4992090;28;20234;-67
2022/03/30 14:47:42;;;;;;;1999.90;999.90;;;;;;;;;;4991479;28;20207;-68
2022/03/30 14:50:27;;;;;;;1999.90;999.90;;;;;;;;;;4991618;28;20299;-67
2022/03/30 14:53:11;;;;;;;1999.90;999.90;;;;;;;;;;4992642;28;20214;-67
2022/03/30 14:55:56;;;;;;;1999.90;999.90;;;;;;;;;;4992559;28;20765;-66
2022/03/30 14:58:42;;;;;;;1999.90;999.90;;;;;;;;;;4990863;28;20209;-68
2022/03/30 15:01:28;;;;;;;1999.90;999.90;;;;;;;;;;4992587;28;20222;-68
2022/03/30 15:04:14;;;;;;;1999.90;999.90;;;;;;;;;;4989587;28;20238;-68
2022/03/30 15:06:59;;;;;;;1999.90;999.90;;;;;;;;;;4990392;28;20573;-67
2022/03/30 15:09:44;;;;;;;1999.90;999.90;;;;;;;;;;4991645;28;20214;-67
2022/03/30 15:12:29;;;;;;;1999.90;999.90;;;;;;;;;;4991411;28;20582;-68
2022/03/30 15:15:16;;;;;;;1999.90;999.90;;;;;;;;;;4991662;28;20590;-66
2022/03/30 15:18:00;;;;;;;1999.90;999.90;;;;;;;;;;4990258;28;20204;-68
2022/03/30 15:20:45;;;;;;;1999.90;999.90;;;;;;;;;;4992217;28;20211;-68
2022/03/30 15:23:30;;;;;;;1999.90;999.90;;;;;;;;;;4991318;28;20688;-67
2022/03/30 15:26:15;;;;;;;1999.90;999.90;;;;;;;;;;4975271;28;20211;-66
2022/03/30 15:29:01;;;;;;;1999.90;999.90;;;;;;;;;;4979568;28;20212;-67
2022/03/30 15:31:48;;;;;;;1999.90;999.90;;;;;;;;;;4979077;28;20255;-67
2022/03/30 15:34:34;;;;;;;1999.90;999.90;;;;;;;;;;4981083;28;20301;-68
2022/03/30 15:37:19;;;;;;;1999.90;999.90;;;;;;;;;;4971648;28;21510;-68